sensor_id;sensor_type;location;lat;lon;timestamp;P1;durP1;ratioP1;P2;durP2;ratioP2
13607;SDS011;6875;50.852;5.672;2023-06-26T00:00:10;8.37;;;6.50;;
13607;SDS011;6875;50.852;5.672;2023-06-26T00:02:39;6.57;;;5.87;;
13607;SDS011;6875;50.852;5.672;2023-06-26T00:05:10;8.43;;;6.67;;
13607;SDS011;6875;50.852;5.672;2023-06-26T00:07:37;7.13;;;6.30;;
13607;SDS011;6875;50.852;5.672;2023-06-26T00:10:06;7.33;;;6.20;;
13607;SDS011;6875;50.852;5.672;2023-06-26T00:12:33;11.27;;;6.93;;
13607;SDS011;6875;50.852;5.672;2023-06-26T00:15:02;8.93;;;6.90;;
13607;SDS011;6875;50.852;5.672;2023-06-26T00:17:30;6.80;;;6.20;;
13607;SDS011;6875;50.852;5.672;2023-06-26T00:20:03;9.27;;;6.77;;
13607;SDS011;6875;50.852;5.672;2023-06-26T00:22:32;8.07;;;7.27;;
13607;SDS011;6875;50.852;5.672;2023-06-26T00:24:58;7.73;;;6.93;;
13607;SDS011;6875;50.852;5.672;2023-06-26T00:27:26;8.13;;;7.30;;
13607;SDS011;6875;50.852;5.672;2023-06-26T00:29:52;8.53;;;7.20;;
13607;SDS011;6875;50.852;5.672;2023-06-26T00:32:22;8.37;;;7.40;;
13607;SDS011;6875;50.852;5.672;2023-06-26T00:34:50;8.60;;;7.07;;
13607;SDS011;6875;50.852;5.672;2023-06-26T00:37:19;9.57;;;7.30;;
13607;SDS011;6875;50.852;5.672;2023-06-26T00:39:47;7.93;;;7.13;;
13607;SDS011;6875;50.852;5.672;2023-06-26T00:42:14;8.53;;;7.63;;
13607;SDS011;6875;50.852;5.672;2023-06-26T00:44:44;8.80;;;7.23;;
13607;SDS011;6875;50.852;5.672;2023-06-26T00:47:13;7.73;;;6.30;;
13607;SDS011;6875;50.852;5.672;2023-06-26T00:49:42;8.33;;;6.70;;
13607;SDS011;6875;50.852;5.672;2023-06-26T00:52:09;7.60;;;6.03;;
13607;SDS011;6875;50.852;5.672;2023-06-26T00:54:38;6.80;;;6.10;;
13607;SDS011;6875;50.852;5.672;2023-06-26T00:57:05;7.87;;;5.70;;
13607;SDS011;6875;50.852;5.672;2023-06-26T00:59:32;8.30;;;5.30;;
13607;SDS011;6875;50.852;5.672;2023-06-26T01:02:02;6.53;;;4.70;;
13607;SDS011;6875;50.852;5.672;2023-06-26T01:04:29;5.67;;;4.43;;
13607;SDS011;6875;50.852;5.672;2023-06-26T01:06:57;5.67;;;4.87;;
13607;SDS011;6875;50.852;5.672;2023-06-26T01:09:26;7.93;;;4.93;;
13607;SDS011;6875;50.852;5.672;2023-06-26T01:11:56;6.37;;;4.30;;
13607;SDS011;6875;50.852;5.672;2023-06-26T01:14:25;8.23;;;4.23;;
13607;SDS011;6875;50.852;5.672;2023-06-26T01:16:58;4.70;;;3.73;;
13607;SDS011;6875;50.852;5.672;2023-06-26T01:19:34;4.80;;;3.83;;
13607;SDS011;6875;50.852;5.672;2023-06-26T01:22:18;7.33;;;3.83;;
13607;SDS011;6875;50.852;5.672;2023-06-26T01:24:56;5.97;;;3.90;;
13607;SDS011;6875;50.852;5.672;2023-06-26T01:27:32;7.30;;;4.00;;
13607;SDS011;6875;50.852;5.672;2023-06-26T01:30:00;10.30;;;4.50;;
13607;SDS011;6875;50.852;5.672;2023-06-26T01:32:30;8.63;;;4.23;;
13607;SDS011;6875;50.852;5.672;2023-06-26T01:35:00;5.93;;;4.20;;
13607;SDS011;6875;50.852;5.672;2023-06-26T01:37:28;5.87;;;4.07;;
13607;SDS011;6875;50.852;5.672;2023-06-26T01:39:56;7.13;;;4.07;;
13607;SDS011;6875;50.852;5.672;2023-06-26T01:42:25;5.80;;;3.70;;
13607;SDS011;6875;50.852;5.672;2023-06-26T01:44:54;6.97;;;4.33;;
13607;SDS011;6875;50.852;5.672;2023-06-26T01:47:24;8.43;;;4.40;;
13607;SDS011;6875;50.852;5.672;2023-06-26T01:49:59;10.07;;;4.10;;
13607;SDS011;6875;50.852;5.672;2023-06-26T01:52:32;6.43;;;3.90;;
13607;SDS011;6875;50.852;5.672;2023-06-26T01:55:07;9.17;;;3.90;;
13607;SDS011;6875;50.852;5.672;2023-06-26T01:57:45;8.80;;;4.03;;
13607;SDS011;6875;50.852;5.672;2023-06-26T02:00:18;8.47;;;4.10;;
13607;SDS011;6875;50.852;5.672;2023-06-26T02:02:46;8.40;;;4.23;;
13607;SDS011;6875;50.852;5.672;2023-06-26T02:05:17;7.80;;;3.77;;
13607;SDS011;6875;50.852;5.672;2023-06-26T02:07:44;6.93;;;3.93;;
13607;SDS011;6875;50.852;5.672;2023-06-26T02:10:16;9.57;;;4.43;;
13607;SDS011;6875;50.852;5.672;2023-06-26T02:12:47;8.23;;;4.30;;
13607;SDS011;6875;50.852;5.672;2023-06-26T02:15:15;7.70;;;3.90;;
13607;SDS011;6875;50.852;5.672;2023-06-26T02:17:43;9.17;;;4.70;;
13607;SDS011;6875;50.852;5.672;2023-06-26T02:20:13;13.83;;;4.50;;
13607;SDS011;6875;50.852;5.672;2023-06-26T02:22:43;11.10;;;4.80;;
13607;SDS011;6875;50.852;5.672;2023-06-26T02:25:11;10.57;;;4.80;;
13607;SDS011;6875;50.852;5.672;2023-06-26T02:27:41;9.50;;;4.63;;
13607;SDS011;6875;50.852;5.672;2023-06-26T02:30:09;8.73;;;4.60;;
13607;SDS011;6875;50.852;5.672;2023-06-26T02:32:37;12.13;;;4.63;;
13607;SDS011;6875;50.852;5.672;2023-06-26T02:35:07;15.03;;;4.93;;
13607;SDS011;6875;50.852;5.672;2023-06-26T02:37:35;14.07;;;4.90;;
13607;SDS011;6875;50.852;5.672;2023-06-26T02:40:02;10.63;;;4.77;;
13607;SDS011;6875;50.852;5.672;2023-06-26T02:45:02;16.17;;;4.73;;
13607;SDS011;6875;50.852;5.672;2023-06-26T02:47:31;9.27;;;4.57;;
13607;SDS011;6875;50.852;5.672;2023-06-26T02:49:58;10.77;;;4.90;;
13607;SDS011;6875;50.852;5.672;2023-06-26T02:52:26;14.63;;;5.17;;
13607;SDS011;6875;50.852;5.672;2023-06-26T02:54:53;11.13;;;5.17;;
13607;SDS011;6875;50.852;5.672;2023-06-26T02:57:21;14.97;;;5.23;;
13607;SDS011;6875;50.852;5.672;2023-06-26T02:59:48;10.63;;;5.00;;
13607;SDS011;6875;50.852;5.672;2023-06-26T03:02:16;12.30;;;5.33;;
13607;SDS011;6875;50.852;5.672;2023-06-26T03:04:48;10.57;;;5.27;;
13607;SDS011;6875;50.852;5.672;2023-06-26T03:07:17;12.67;;;5.33;;
13607;SDS011;6875;50.852;5.672;2023-06-26T03:09:45;15.17;;;5.47;;
13607;SDS011;6875;50.852;5.672;2023-06-26T03:12:14;15.40;;;5.20;;
13607;SDS011;6875;50.852;5.672;2023-06-26T03:14:44;15.50;;;5.70;;
13607;SDS011;6875;50.852;5.672;2023-06-26T03:17:11;16.10;;;5.83;;
13607;SDS011;6875;50.852;5.672;2023-06-26T03:19:37;13.77;;;5.37;;
13607;SDS011;6875;50.852;5.672;2023-06-26T03:22:04;16.37;;;6.10;;
13607;SDS011;6875;50.852;5.672;2023-06-26T03:24:31;13.67;;;6.00;;
13607;SDS011;6875;50.852;5.672;2023-06-26T03:27:00;14.43;;;5.00;;
13607;SDS011;6875;50.852;5.672;2023-06-26T03:29:28;16.77;;;6.30;;
13607;SDS011;6875;50.852;5.672;2023-06-26T03:31:55;13.27;;;5.20;;
13607;SDS011;6875;50.852;5.672;2023-06-26T03:34:22;16.13;;;6.13;;
13607;SDS011;6875;50.852;5.672;2023-06-26T03:36:49;16.73;;;5.90;;
13607;SDS011;6875;50.852;5.672;2023-06-26T03:39:16;14.97;;;6.17;;
13607;SDS011;6875;50.852;5.672;2023-06-26T03:41:43;14.43;;;6.03;;
13607;SDS011;6875;50.852;5.672;2023-06-26T03:44:11;15.73;;;6.23;;
13607;SDS011;6875;50.852;5.672;2023-06-26T03:46:38;17.30;;;6.00;;
13607;SDS011;6875;50.852;5.672;2023-06-26T03:49:05;17.47;;;6.20;;
13607;SDS011;6875;50.852;5.672;2023-06-26T03:51:32;14.23;;;5.50;;
13607;SDS011;6875;50.852;5.672;2023-06-26T03:54:02;16.00;;;6.33;;
13607;SDS011;6875;50.852;5.672;2023-06-26T03:56:29;15.03;;;5.80;;
13607;SDS011;6875;50.852;5.672;2023-06-26T03:58:56;18.17;;;5.63;;
13607;SDS011;6875;50.852;5.672;2023-06-26T04:01:24;19.47;;;6.30;;
13607;SDS011;6875;50.852;5.672;2023-06-26T04:03:51;13.07;;;5.43;;
13607;SDS011;6875;50.852;5.672;2023-06-26T04:06:18;16.00;;;6.13;;
13607;SDS011;6875;50.852;5.672;2023-06-26T04:08:45;14.90;;;6.20;;
13607;SDS011;6875;50.852;5.672;2023-06-26T04:11:13;17.13;;;6.50;;
13607;SDS011;6875;50.852;5.672;2023-06-26T04:13:43;17.83;;;7.07;;
13607;SDS011;6875;50.852;5.672;2023-06-26T04:16:12;17.27;;;6.37;;
13607;SDS011;6875;50.852;5.672;2023-06-26T04:18:44;20.10;;;6.20;;
13607;SDS011;6875;50.852;5.672;2023-06-26T04:21:15;13.70;;;6.03;;
13607;SDS011;6875;50.852;5.672;2023-06-26T04:23:42;14.87;;;5.80;;
13607;SDS011;6875;50.852;5.672;2023-06-26T04:26:10;16.30;;;5.77;;
13607;SDS011;6875;50.852;5.672;2023-06-26T04:28:40;18.43;;;5.60;;
13607;SDS011;6875;50.852;5.672;2023-06-26T04:31:08;17.97;;;5.63;;
13607;SDS011;6875;50.852;5.672;2023-06-26T04:33:38;17.90;;;5.87;;
13607;SDS011;6875;50.852;5.672;2023-06-26T04:36:10;15.73;;;5.83;;
13607;SDS011;6875;50.852;5.672;2023-06-26T04:38:37;19.27;;;5.83;;
13607;SDS011;6875;50.852;5.672;2023-06-26T04:41:04;13.20;;;6.27;;
13607;SDS011;6875;50.852;5.672;2023-06-26T04:43:31;17.60;;;6.10;;
13607;SDS011;6875;50.852;5.672;2023-06-26T04:46:03;14.73;;;6.23;;
13607;SDS011;6875;50.852;5.672;2023-06-26T04:48:31;17.37;;;6.27;;
13607;SDS011;6875;50.852;5.672;2023-06-26T04:50:58;15.23;;;5.70;;
13607;SDS011;6875;50.852;5.672;2023-06-26T04:53:26;17.53;;;6.23;;
13607;SDS011;6875;50.852;5.672;2023-06-26T04:55:53;15.53;;;5.53;;
13607;SDS011;6875;50.852;5.672;2023-06-26T04:58:20;19.57;;;6.00;;
13607;SDS011;6875;50.852;5.672;2023-06-26T05:00:47;18.93;;;5.90;;
13607;SDS011;6875;50.852;5.672;2023-06-26T05:03:16;19.03;;;6.77;;
13607;SDS011;6875;50.852;5.672;2023-06-26T05:05:43;15.87;;;6.57;;
13607;SDS011;6875;50.852;5.672;2023-06-26T05:08:16;13.43;;;5.87;;
13607;SDS011;6875;50.852;5.672;2023-06-26T05:10:45;18.80;;;6.70;;
13607;SDS011;6875;50.852;5.672;2023-06-26T05:13:12;20.17;;;6.43;;
13607;SDS011;6875;50.852;5.672;2023-06-26T05:15:44;15.80;;;5.90;;
13607;SDS011;6875;50.852;5.672;2023-06-26T05:18:12;14.93;;;5.50;;
13607;SDS011;6875;50.852;5.672;2023-06-26T05:20:42;14.80;;;5.47;;
13607;SDS011;6875;50.852;5.672;2023-06-26T05:23:12;14.10;;;5.60;;
13607;SDS011;6875;50.852;5.672;2023-06-26T05:25:41;13.07;;;5.60;;
13607;SDS011;6875;50.852;5.672;2023-06-26T05:28:12;16.53;;;5.33;;
13607;SDS011;6875;50.852;5.672;2023-06-26T05:30:40;13.87;;;5.50;;
13607;SDS011;6875;50.852;5.672;2023-06-26T05:33:10;11.37;;;5.63;;
13607;SDS011;6875;50.852;5.672;2023-06-26T05:35:37;17.83;;;5.77;;
13607;SDS011;6875;50.852;5.672;2023-06-26T05:38:10;17.47;;;6.43;;
13607;SDS011;6875;50.852;5.672;2023-06-26T05:40:38;18.87;;;6.50;;
13607;SDS011;6875;50.852;5.672;2023-06-26T05:43:06;17.73;;;5.57;;
13607;SDS011;6875;50.852;5.672;2023-06-26T05:45:35;14.43;;;4.97;;
13607;SDS011;6875;50.852;5.672;2023-06-26T05:48:02;15.63;;;4.77;;
13607;SDS011;6875;50.852;5.672;2023-06-26T05:50:30;8.67;;;3.93;;
13607;SDS011;6875;50.852;5.672;2023-06-26T05:52:57;10.30;;;4.27;;
13607;SDS011;6875;50.852;5.672;2023-06-26T05:55:28;11.70;;;4.60;;
13607;SDS011;6875;50.852;5.672;2023-06-26T05:57:56;9.40;;;4.27;;
13607;SDS011;6875;50.852;5.672;2023-06-26T06:00:25;12.47;;;3.67;;
13607;SDS011;6875;50.852;5.672;2023-06-26T06:02:54;9.37;;;3.77;;
13607;SDS011;6875;50.852;5.672;2023-06-26T06:05:21;9.20;;;3.87;;
13607;SDS011;6875;50.852;5.672;2023-06-26T06:07:48;10.60;;;4.23;;
13607;SDS011;6875;50.852;5.672;2023-06-26T06:10:15;7.60;;;3.33;;
13607;SDS011;6875;50.852;5.672;2023-06-26T06:12:43;8.90;;;3.53;;
13607;SDS011;6875;50.852;5.672;2023-06-26T06:15:09;8.20;;;3.30;;
13607;SDS011;6875;50.852;5.672;2023-06-26T06:17:36;7.73;;;3.60;;
13607;SDS011;6875;50.852;5.672;2023-06-26T06:20:05;10.93;;;3.80;;
13607;SDS011;6875;50.852;5.672;2023-06-26T06:22:32;7.07;;;3.30;;
13607;SDS011;6875;50.852;5.672;2023-06-26T06:24:59;13.27;;;3.63;;
13607;SDS011;6875;50.852;5.672;2023-06-26T06:27:26;10.37;;;3.90;;
13607;SDS011;6875;50.852;5.672;2023-06-26T06:29:54;10.47;;;3.80;;
13607;SDS011;6875;50.852;5.672;2023-06-26T06:32:20;8.87;;;3.23;;
13607;SDS011;6875;50.852;5.672;2023-06-26T06:34:47;10.93;;;3.57;;
13607;SDS011;6875;50.852;5.672;2023-06-26T06:37:17;11.63;;;3.73;;
13607;SDS011;6875;50.852;5.672;2023-06-26T06:39:44;10.23;;;3.40;;
13607;SDS011;6875;50.852;5.672;2023-06-26T06:42:11;9.30;;;3.30;;
13607;SDS011;6875;50.852;5.672;2023-06-26T06:44:38;9.10;;;3.40;;
13607;SDS011;6875;50.852;5.672;2023-06-26T06:47:05;10.43;;;3.30;;
13607;SDS011;6875;50.852;5.672;2023-06-26T06:49:32;10.10;;;3.67;;
13607;SDS011;6875;50.852;5.672;2023-06-26T06:51:59;8.40;;;3.30;;
13607;SDS011;6875;50.852;5.672;2023-06-26T06:54:33;8.07;;;3.37;;
13607;SDS011;6875;50.852;5.672;2023-06-26T06:57:20;10.80;;;3.47;;
13607;SDS011;6875;50.852;5.672;2023-06-26T06:59:47;5.83;;;3.10;;
13607;SDS011;6875;50.852;5.672;2023-06-26T07:02:15;10.33;;;3.60;;
13607;SDS011;6875;50.852;5.672;2023-06-26T07:04:44;6.20;;;2.73;;
13607;SDS011;6875;50.852;5.672;2023-06-26T07:07:11;4.40;;;2.70;;
13607;SDS011;6875;50.852;5.672;2023-06-26T07:09:41;4.10;;;2.60;;
13607;SDS011;6875;50.852;5.672;2023-06-26T07:12:08;5.50;;;3.00;;
13607;SDS011;6875;50.852;5.672;2023-06-26T07:14:35;4.90;;;2.67;;
13607;SDS011;6875;50.852;5.672;2023-06-26T07:17:02;4.73;;;3.17;;
13607;SDS011;6875;50.852;5.672;2023-06-26T07:19:30;5.50;;;2.77;;
13607;SDS011;6875;50.852;5.672;2023-06-26T07:21:56;6.87;;;3.23;;
13607;SDS011;6875;50.852;5.672;2023-06-26T07:24:23;5.60;;;2.73;;
13607;SDS011;6875;50.852;5.672;2023-06-26T07:26:51;6.33;;;2.60;;
13607;SDS011;6875;50.852;5.672;2023-06-26T07:29:19;6.60;;;3.33;;
13607;SDS011;6875;50.852;5.672;2023-06-26T07:31:46;4.83;;;2.93;;
13607;SDS011;6875;50.852;5.672;2023-06-26T07:34:13;8.27;;;3.30;;
13607;SDS011;6875;50.852;5.672;2023-06-26T07:36:45;4.50;;;3.00;;
13607;SDS011;6875;50.852;5.672;2023-06-26T07:39:12;7.40;;;2.70;;
13607;SDS011;6875;50.852;5.672;2023-06-26T07:41:39;4.10;;;2.30;;
13607;SDS011;6875;50.852;5.672;2023-06-26T07:44:08;5.27;;;2.47;;
13607;SDS011;6875;50.852;5.672;2023-06-26T07:46:34;7.17;;;2.50;;
13607;SDS011;6875;50.852;5.672;2023-06-26T07:49:01;4.93;;;2.50;;
13607;SDS011;6875;50.852;5.672;2023-06-26T07:51:28;7.60;;;2.63;;
13607;SDS011;6875;50.852;5.672;2023-06-26T07:53:54;5.33;;;2.10;;
13607;SDS011;6875;50.852;5.672;2023-06-26T07:56:21;4.40;;;2.27;;
13607;SDS011;6875;50.852;5.672;2023-06-26T07:58:48;7.50;;;2.33;;
13607;SDS011;6875;50.852;5.672;2023-06-26T08:01:16;7.27;;;2.10;;
13607;SDS011;6875;50.852;5.672;2023-06-26T08:03:43;5.80;;;2.33;;
13607;SDS011;6875;50.852;5.672;2023-06-26T08:06:12;5.77;;;2.10;;
13607;SDS011;6875;50.852;5.672;2023-06-26T08:08:41;3.70;;;1.57;;
13607;SDS011;6875;50.852;5.672;2023-06-26T08:11:08;6.83;;;1.97;;
13607;SDS011;6875;50.852;5.672;2023-06-26T08:13:34;6.73;;;2.03;;
13607;SDS011;6875;50.852;5.672;2023-06-26T08:16:01;4.30;;;2.13;;
13607;SDS011;6875;50.852;5.672;2023-06-26T08:18:29;3.70;;;1.53;;
13607;SDS011;6875;50.852;5.672;2023-06-26T08:20:56;9.13;;;1.90;;
13607;SDS011;6875;50.852;5.672;2023-06-26T08:23:23;5.47;;;2.17;;
13607;SDS011;6875;50.852;5.672;2023-06-26T08:25:52;4.43;;;2.17;;
13607;SDS011;6875;50.852;5.672;2023-06-26T08:28:19;4.07;;;2.00;;
13607;SDS011;6875;50.852;5.672;2023-06-26T08:30:46;8.37;;;1.80;;
13607;SDS011;6875;50.852;5.672;2023-06-26T08:33:13;4.90;;;1.80;;
13607;SDS011;6875;50.852;5.672;2023-06-26T08:35:44;3.50;;;1.60;;
13607;SDS011;6875;50.852;5.672;2023-06-26T08:38:11;4.17;;;1.47;;
13607;SDS011;6875;50.852;5.672;2023-06-26T08:40:37;3.07;;;1.40;;
13607;SDS011;6875;50.852;5.672;2023-06-26T08:43:04;5.23;;;1.47;;
13607;SDS011;6875;50.852;5.672;2023-06-26T08:45:31;4.37;;;1.50;;
13607;SDS011;6875;50.852;5.672;2023-06-26T08:47:59;3.80;;;1.40;;
13607;SDS011;6875;50.852;5.672;2023-06-26T08:50:30;3.57;;;1.90;;
13607;SDS011;6875;50.852;5.672;2023-06-26T08:53:00;5.50;;;1.20;;
13607;SDS011;6875;50.852;5.672;2023-06-26T08:55:32;5.47;;;1.27;;
13607;SDS011;6875;50.852;5.672;2023-06-26T08:58:02;3.53;;;1.30;;
13607;SDS011;6875;50.852;5.672;2023-06-26T09:00:32;3.57;;;1.20;;
13607;SDS011;6875;50.852;5.672;2023-06-26T09:02:59;4.60;;;1.50;;
13607;SDS011;6875;50.852;5.672;2023-06-26T09:05:27;6.80;;;1.23;;
13607;SDS011;6875;50.852;5.672;2023-06-26T09:07:54;4.67;;;1.40;;
13607;SDS011;6875;50.852;5.672;2023-06-26T09:10:22;2.43;;;1.30;;
13607;SDS011;6875;50.852;5.672;2023-06-26T09:12:50;3.60;;;1.40;;
13607;SDS011;6875;50.852;5.672;2023-06-26T09:15:19;12.27;;;2.10;;
13607;SDS011;6875;50.852;5.672;2023-06-26T09:17:47;8.30;;;1.73;;
13607;SDS011;6875;50.852;5.672;2023-06-26T09:20:17;4.00;;;1.50;;
13607;SDS011;6875;50.852;5.672;2023-06-26T09:22:46;5.37;;;1.80;;
13607;SDS011;6875;50.852;5.672;2023-06-26T09:25:14;4.80;;;1.67;;
13607;SDS011;6875;50.852;5.672;2023-06-26T09:27:44;3.23;;;1.30;;
13607;SDS011;6875;50.852;5.672;2023-06-26T09:30:11;2.63;;;1.40;;
13607;SDS011;6875;50.852;5.672;2023-06-26T09:32:39;5.40;;;1.20;;
13607;SDS011;6875;50.852;5.672;2023-06-26T09:35:06;4.03;;;1.47;;
13607;SDS011;6875;50.852;5.672;2023-06-26T09:37:34;5.47;;;1.50;;
13607;SDS011;6875;50.852;5.672;2023-06-26T09:40:01;5.80;;;1.60;;
13607;SDS011;6875;50.852;5.672;2023-06-26T09:42:28;4.47;;;1.47;;
13607;SDS011;6875;50.852;5.672;2023-06-26T09:44:57;3.17;;;1.20;;
13607;SDS011;6875;50.852;5.672;2023-06-26T09:47:24;7.97;;;1.43;;
13607;SDS011;6875;50.852;5.672;2023-06-26T09:49:50;2.40;;;1.30;;
13607;SDS011;6875;50.852;5.672;2023-06-26T09:52:20;2.40;;;1.10;;
13607;SDS011;6875;50.852;5.672;2023-06-26T09:54:47;3.60;;;1.47;;
13607;SDS011;6875;50.852;5.672;2023-06-26T09:57:16;2.50;;;0.83;;
13607;SDS011;6875;50.852;5.672;2023-06-26T09:59:44;4.40;;;1.07;;
13607;SDS011;6875;50.852;5.672;2023-06-26T10:02:19;2.20;;;1.17;;
13607;SDS011;6875;50.852;5.672;2023-06-26T10:04:50;2.80;;;0.97;;
13607;SDS011;6875;50.852;5.672;2023-06-26T10:07:17;7.37;;;1.40;;
13607;SDS011;6875;50.852;5.672;2023-06-26T10:09:45;4.27;;;1.23;;
13607;SDS011;6875;50.852;5.672;2023-06-26T10:12:15;6.40;;;1.30;;
13607;SDS011;6875;50.852;5.672;2023-06-26T10:14:44;3.73;;;1.30;;
13607;SDS011;6875;50.852;5.672;2023-06-26T10:17:13;3.37;;;1.20;;
13607;SDS011;6875;50.852;5.672;2023-06-26T10:19:44;2.93;;;1.00;;
13607;SDS011;6875;50.852;5.672;2023-06-26T10:22:11;3.47;;;1.10;;
13607;SDS011;6875;50.852;5.672;2023-06-26T10:24:43;1.70;;;1.00;;
13607;SDS011;6875;50.852;5.672;2023-06-26T10:27:13;6.00;;;1.17;;
13607;SDS011;6875;50.852;5.672;2023-06-26T10:29:42;3.23;;;1.47;;
13607;SDS011;6875;50.852;5.672;2023-06-26T10:32:10;4.10;;;1.10;;
13607;SDS011;6875;50.852;5.672;2023-06-26T10:34:39;3.27;;;1.20;;
13607;SDS011;6875;50.852;5.672;2023-06-26T10:37:07;3.73;;;1.17;;
13607;SDS011;6875;50.852;5.672;2023-06-26T10:39:45;2.43;;;0.90;;
13607;SDS011;6875;50.852;5.672;2023-06-26T10:42:14;3.70;;;1.00;;
13607;SDS011;6875;50.852;5.672;2023-06-26T10:44:43;5.50;;;1.30;;
13607;SDS011;6875;50.852;5.672;2023-06-26T10:47:10;1.93;;;0.90;;
13607;SDS011;6875;50.852;5.672;2023-06-26T10:49:37;2.50;;;1.10;;
13607;SDS011;6875;50.852;5.672;2023-06-26T10:52:07;3.27;;;1.30;;
13607;SDS011;6875;50.852;5.672;2023-06-26T10:54:34;3.47;;;1.13;;
13607;SDS011;6875;50.852;5.672;2023-06-26T10:57:02;4.30;;;1.30;;
13607;SDS011;6875;50.852;5.672;2023-06-26T10:59:31;3.97;;;1.17;;
13607;SDS011;6875;50.852;5.672;2023-06-26T11:01:58;3.03;;;1.03;;
13607;SDS011;6875;50.852;5.672;2023-06-26T11:04:38;1.80;;;1.17;;
13607;SDS011;6875;50.852;5.672;2023-06-26T11:07:18;4.67;;;1.30;;
13607;SDS011;6875;50.852;5.672;2023-06-26T11:09:55;8.30;;;1.57;;
13607;SDS011;6875;50.852;5.672;2023-06-26T11:12:35;4.00;;;1.30;;
13607;SDS011;6875;50.852;5.672;2023-06-26T11:15:03;2.77;;;1.37;;
13607;SDS011;6875;50.852;5.672;2023-06-26T11:17:30;4.50;;;1.40;;
13607;SDS011;6875;50.852;5.672;2023-06-26T11:19:57;3.93;;;1.30;;
13607;SDS011;6875;50.852;5.672;2023-06-26T11:22:26;3.63;;;1.10;;
13607;SDS011;6875;50.852;5.672;2023-06-26T11:24:53;3.17;;;1.17;;
13607;SDS011;6875;50.852;5.672;2023-06-26T11:27:20;2.70;;;1.03;;
13607;SDS011;6875;50.852;5.672;2023-06-26T11:29:49;2.40;;;1.20;;
13607;SDS011;6875;50.852;5.672;2023-06-26T11:32:17;1.97;;;1.10;;
13607;SDS011;6875;50.852;5.672;2023-06-26T11:34:44;3.63;;;1.23;;
13607;SDS011;6875;50.852;5.672;2023-06-26T11:37:10;4.10;;;1.33;;
13607;SDS011;6875;50.852;5.672;2023-06-26T11:39:38;3.57;;;1.20;;
13607;SDS011;6875;50.852;5.672;2023-06-26T11:42:05;3.83;;;1.30;;
13607;SDS011;6875;50.852;5.672;2023-06-26T11:44:39;2.27;;;1.20;;
13607;SDS011;6875;50.852;5.672;2023-06-26T11:47:06;2.63;;;1.20;;
13607;SDS011;6875;50.852;5.672;2023-06-26T11:49:33;3.80;;;1.40;;
13607;SDS011;6875;50.852;5.672;2023-06-26T11:52:02;1.97;;;1.10;;
13607;SDS011;6875;50.852;5.672;2023-06-26T11:54:29;3.60;;;1.10;;
13607;SDS011;6875;50.852;5.672;2023-06-26T11:56:58;5.67;;;1.23;;
13607;SDS011;6875;50.852;5.672;2023-06-26T11:59:32;2.43;;;1.07;;
13607;SDS011;6875;50.852;5.672;2023-06-26T12:02:00;3.73;;;1.20;;
13607;SDS011;6875;50.852;5.672;2023-06-26T12:04:27;3.83;;;1.10;;
13607;SDS011;6875;50.852;5.672;2023-06-26T12:06:55;2.17;;;1.23;;
13607;SDS011;6875;50.852;5.672;2023-06-26T12:09:22;1.90;;;1.10;;
13607;SDS011;6875;50.852;5.672;2023-06-26T12:11:51;3.60;;;1.40;;
13607;SDS011;6875;50.852;5.672;2023-06-26T12:14:22;4.03;;;1.30;;
13607;SDS011;6875;50.852;5.672;2023-06-26T12:16:50;6.40;;;1.40;;
13607;SDS011;6875;50.852;5.672;2023-06-26T12:19:24;3.73;;;1.20;;
13607;SDS011;6875;50.852;5.672;2023-06-26T12:21:51;3.37;;;1.37;;
13607;SDS011;6875;50.852;5.672;2023-06-26T12:24:19;6.20;;;1.50;;
13607;SDS011;6875;50.852;5.672;2023-06-26T12:26:48;3.37;;;1.50;;
13607;SDS011;6875;50.852;5.672;2023-06-26T12:29:18;2.00;;;1.43;;
13607;SDS011;6875;50.852;5.672;2023-06-26T12:31:50;4.03;;;1.70;;
13607;SDS011;6875;50.852;5.672;2023-06-26T12:34:19;4.17;;;1.60;;
13607;SDS011;6875;50.852;5.672;2023-06-26T12:36:48;3.00;;;1.37;;
13607;SDS011;6875;50.852;5.672;2023-06-26T12:39:16;3.93;;;1.60;;
13607;SDS011;6875;50.852;5.672;2023-06-26T12:41:44;3.97;;;1.20;;
13607;SDS011;6875;50.852;5.672;2023-06-26T12:44:18;3.37;;;1.57;;
13607;SDS011;6875;50.852;5.672;2023-06-26T12:46:46;4.67;;;1.13;;
13607;SDS011;6875;50.852;5.672;2023-06-26T12:49:15;2.23;;;1.03;;
13607;SDS011;6875;50.852;5.672;2023-06-26T12:51:43;2.60;;;1.17;;
13607;SDS011;6875;50.852;5.672;2023-06-26T12:54:09;4.73;;;1.10;;
13607;SDS011;6875;50.852;5.672;2023-06-26T12:56:36;2.13;;;1.20;;
13607;SDS011;6875;50.852;5.672;2023-06-26T12:59:03;2.63;;;1.00;;
13607;SDS011;6875;50.852;5.672;2023-06-26T13:01:30;1.90;;;1.10;;
13607;SDS011;6875;50.852;5.672;2023-06-26T13:03:58;2.43;;;1.20;;
13607;SDS011;6875;50.852;5.672;2023-06-26T13:06:27;2.30;;;1.10;;
13607;SDS011;6875;50.852;5.672;2023-06-26T13:08:56;2.93;;;0.87;;
13607;SDS011;6875;50.852;5.672;2023-06-26T13:11:30;2.03;;;0.83;;
13607;SDS011;6875;50.852;5.672;2023-06-26T13:13:57;2.97;;;0.90;;
13607;SDS011;6875;50.852;5.672;2023-06-26T13:16:24;2.30;;;1.10;;
13607;SDS011;6875;50.852;5.672;2023-06-26T13:18:51;3.83;;;0.90;;
13607;SDS011;6875;50.852;5.672;2023-06-26T13:21:18;2.07;;;0.90;;
13607;SDS011;6875;50.852;5.672;2023-06-26T13:23:46;2.57;;;1.10;;
13607;SDS011;6875;50.852;5.672;2023-06-26T13:26:12;1.83;;;1.00;;
13607;SDS011;6875;50.852;5.672;2023-06-26T13:28:40;6.93;;;1.27;;
13607;SDS011;6875;50.852;5.672;2023-06-26T13:31:07;2.57;;;1.10;;
13607;SDS011;6875;50.852;5.672;2023-06-26T13:33:33;5.30;;;1.00;;
13607;SDS011;6875;50.852;5.672;2023-06-26T13:36:03;1.97;;;1.27;;
13607;SDS011;6875;50.852;5.672;2023-06-26T13:38:46;2.47;;;1.10;;
13607;SDS011;6875;50.852;5.672;2023-06-26T13:41:20;5.20;;;1.27;;
13607;SDS011;6875;50.852;5.672;2023-06-26T13:43:48;3.50;;;1.20;;
13607;SDS011;6875;50.852;5.672;2023-06-26T13:46:17;0.90;;;0.77;;
13607;SDS011;6875;50.852;5.672;2023-06-26T13:48:47;2.27;;;1.00;;
13607;SDS011;6875;50.852;5.672;2023-06-26T13:51:15;1.17;;;0.77;;
13607;SDS011;6875;50.852;5.672;2023-06-26T13:53:42;2.17;;;1.10;;
13607;SDS011;6875;50.852;5.672;2023-06-26T13:56:11;2.80;;;0.90;;
13607;SDS011;6875;50.852;5.672;2023-06-26T13:58:38;2.23;;;0.80;;
13607;SDS011;6875;50.852;5.672;2023-06-26T14:01:06;3.40;;;1.00;;
13607;SDS011;6875;50.852;5.672;2023-06-26T14:03:33;4.93;;;1.37;;
13607;SDS011;6875;50.852;5.672;2023-06-26T14:06:00;2.27;;;1.30;;
13607;SDS011;6875;50.852;5.672;2023-06-26T14:08:34;2.57;;;0.93;;
13607;SDS011;6875;50.852;5.672;2023-06-26T14:11:06;2.70;;;1.20;;
13607;SDS011;6875;50.852;5.672;2023-06-26T14:13:41;3.23;;;1.43;;
13607;SDS011;6875;50.852;5.672;2023-06-26T14:16:08;3.00;;;1.20;;
13607;SDS011;6875;50.852;5.672;2023-06-26T14:18:35;3.07;;;1.10;;
13607;SDS011;6875;50.852;5.672;2023-06-26T14:21:02;1.80;;;1.23;;
13607;SDS011;6875;50.852;5.672;2023-06-26T14:23:29;2.53;;;1.10;;
13607;SDS011;6875;50.852;5.672;2023-06-26T14:25:58;2.83;;;1.23;;
13607;SDS011;6875;50.852;5.672;2023-06-26T14:28:26;4.70;;;1.30;;
13607;SDS011;6875;50.852;5.672;2023-06-26T14:30:58;3.50;;;1.30;;
13607;SDS011;6875;50.852;5.672;2023-06-26T14:33:25;2.57;;;1.40;;
13607;SDS011;6875;50.852;5.672;2023-06-26T14:35:55;2.40;;;1.20;;
13607;SDS011;6875;50.852;5.672;2023-06-26T14:38:28;2.37;;;1.27;;
13607;SDS011;6875;50.852;5.672;2023-06-26T14:40:55;3.10;;;1.47;;
13607;SDS011;6875;50.852;5.672;2023-06-26T14:43:24;5.07;;;1.20;;
13607;SDS011;6875;50.852;5.672;2023-06-26T14:45:50;2.30;;;1.20;;
13607;SDS011;6875;50.852;5.672;2023-06-26T14:48:21;4.53;;;1.17;;
13607;SDS011;6875;50.852;5.672;2023-06-26T14:50:48;2.87;;;1.30;;
13607;SDS011;6875;50.852;5.672;2023-06-26T14:53:20;5.57;;;1.77;;
13607;SDS011;6875;50.852;5.672;2023-06-26T14:55:47;4.80;;;1.50;;
13607;SDS011;6875;50.852;5.672;2023-06-26T14:58:24;5.03;;;1.40;;
13607;SDS011;6875;50.852;5.672;2023-06-26T15:01:12;4.30;;;1.27;;
13607;SDS011;6875;50.852;5.672;2023-06-26T15:03:42;4.23;;;1.23;;
13607;SDS011;6875;50.852;5.672;2023-06-26T15:06:09;4.90;;;1.60;;
13607;SDS011;6875;50.852;5.672;2023-06-26T15:08:36;4.63;;;1.50;;